Impacts TAF Board INFO
FOR SITUATIONAL AWARENESS. NOT TO BE USED FOR FLIGHT PLANNING PURPOSES.
IDs:

KHBG - Hattiesburg/Chain Mu, MS, US

Issued at 1120 UTC 20 May 2018
Updated at 1200 UTC 20 May 2018
Potential Impact None Slight Moderate High
Time<<21/00Z 21/01Z 21/02Z 21/03Z 21/04Z 21/05Z 21/06Z 21/07Z 21/08Z 21/09Z 21/10Z 21/11Z 21/12Z>>
Type PRVL PRVL PRVL PRVL PRVL PRVL PRVL PRVL PRVL PRVL PRVL PRVL
VIS >6 >6 >6 >6 >6 >6 >6 >6 >6 2 2 2
CIG 50 50 50 50 50 50 50 50 50 90 90 90
Cover BKN BKN BKN BKN BKN BKN BKN BKN BKN BKN BKN BKN
FltCat VFR VFR VFR VFR VFR VFR VFR VFR VFR IFR IFR IFR
WX VCTS VCTS -- -- -- -- -- -- -- BR BR BR
WDir 90 90 VRB VRB VRB VRB VRB VRB VRB VRB VRB VRB
WSpd 4 4 0 0 0 0 0 0 0 0 0 0
WGst -- -- -- -- -- -- -- -- -- -- -- --

Raw TAF
KHBG 201120Z 2012/2112 00000KT P6SM SCT120 BKN250
  FM201830 09004KT P6SM VCTS BKN050CB BKN090
  FM210200 00000KT P6SM BKN050 BKN090
  FM210900 00000KT 2SM BR BKN090 BKN130


METAR Board
Radar Display
Forecast Discussion

FOR SITUATIONAL AWARENESS. NOT TO BE USED FOR FLIGHT PLANNING PURPOSES.